Time;durP1;ratioP1;P1;durP2;ratioP2;P2;SDS_P1;SDS_P2;PMS_P1;PMS_P2;Temp;Humidity;BMP_temperature;BMP_pressure;BME280_temperature;BME280_humidity;BME280_pressure;Samples;Min_cycle;Max_cycle;Signal;HPM_P1;HPM_P2
2023/09/12 00:01:22;;;;;;;0.10;0.10;;;20.50;99.90;;;;;;5125701;27;20118;-68
2023/09/12 00:03:48;;;;;;;0.70;0.65;;;20.40;99.90;;;;;;5132783;27;20042;-68
2023/09/12 00:06:14;;;;;;;6.28;2.15;;;20.40;99.90;;;;;;5122997;27;20067;-68
2023/09/12 00:08:39;;;;;;;0.75;0.75;;;20.40;99.90;;;;;;5127546;27;20085;-69
2023/09/12 00:11:13;;;;;;;1.08;0.95;;;20.50;99.90;;;;;;5123446;27;20095;-68
2023/09/12 00:13:39;;;;;;;1.00;0.90;;;20.40;99.90;;;;;;5122948;27;20047;-68
2023/09/12 00:16:06;;;;;;;1.52;1.42;;;20.40;99.90;;;;;;5117900;27;20474;-68
2023/09/12 00:18:34;;;;;;;3.17;0.38;;;20.40;99.90;;;;;;5119570;27;20062;-69
2023/09/12 00:21:00;;;;;;;0.17;0.17;;;20.40;99.90;;;;;;5127609;27;20058;-69
2023/09/12 00:23:27;;;;;;;1.33;1.23;;;20.40;99.90;;;;;;5122552;27;20502;-69
2023/09/12 00:25:52;;;;;;;0.80;0.75;;;20.50;99.90;;;;;;5120781;27;20414;-69
2023/09/12 00:28:19;;;;;;;0.90;0.45;;;20.50;99.90;;;;;;5124056;27;20035;-68
2023/09/12 00:30:44;;;;;;;5.55;2.75;;;20.50;99.90;;;;;;5125027;27;20043;-68
2023/09/12 00:33:10;;;;;;;0.73;0.73;;;20.40;99.90;;;;;;5125524;27;20039;-68
2023/09/12 00:35:35;;;;;;;0.75;0.52;;;20.30;99.90;;;;;;5122123;27;20043;-69
2023/09/12 00:38:01;;;;;;;0.17;0.17;;;20.30;99.90;;;;;;5121897;27;20044;-69
2023/09/12 00:40:27;;;;;;;0.22;0.22;;;20.40;99.90;;;;;;5118353;27;20043;-68
2023/09/12 00:42:52;;;;;;;0.63;0.63;;;20.30;99.90;;;;;;5107284;28;20096;-69
2023/09/12 00:45:18;;;;;;;0.57;0.57;;;20.20;99.90;;;;;;5122251;27;20168;-68
2023/09/12 00:47:44;;;;;;;3.40;0.82;;;20.20;99.90;;;;;;5122316;27;20470;-68
2023/09/12 00:50:10;;;;;;;16.58;1.15;;;20.30;99.90;;;;;;5113441;27;20100;-68
2023/09/12 00:52:38;;;;;;;0.60;0.60;;;20.30;99.90;;;;;;5122784;27;20047;-69
2023/09/12 00:55:04;;;;;;;0.15;0.15;;;20.20;99.90;;;;;;5125339;27;20035;-68
2023/09/12 00:57:32;;;;;;;0.50;0.50;;;20.30;99.90;;;;;;5099930;28;20086;-68
2023/09/12 00:59:58;;;;;;;0.50;0.43;;;20.30;99.90;;;;;;5125331;27;20493;-68
2023/09/12 01:02:24;;;;;;;2.17;0.65;;;20.30;99.90;;;;;;5121718;27;20049;-68
2023/09/12 01:04:50;;;;;;;5.70;0.75;;;20.20;99.90;;;;;;5121310;27;20050;-68
2023/09/12 01:07:16;;;;;;;0.40;0.40;;;20.20;99.90;;;;;;5122765;27;20447;-69
2023/09/12 01:09:42;;;;;;;0.60;0.60;;;20.10;99.90;;;;;;5121873;27;20066;-68
2023/09/12 01:12:08;;;;;;;1.35;0.80;;;20.10;99.90;;;;;;5125299;27;20043;-68
2023/09/12 01:14:34;;;;;;;3.20;1.83;;;20.00;99.90;;;;;;5127233;27;20424;-69
2023/09/12 01:17:03;;;;;;;1.88;0.68;;;20.00;99.90;;;;;;5121671;27;20052;-68
2023/09/12 01:19:28;;;;;;;2.63;0.85;;;19.90;99.90;;;;;;5112729;27;20082;-68
2023/09/12 01:22:07;;;;;;;0.52;0.30;;;19.90;99.90;;;;;;5124766;27;20490;-69
2023/09/12 01:24:39;;;;;;;1.80;0.55;;;19.80;99.90;;;;;;5121163;27;20070;-69
2023/09/12 01:27:38;;;;;;;2.03;1.15;;;19.90;99.90;;;;;;5120558;27;20047;-68
2023/09/12 01:30:09;;;;;;;1.08;0.80;;;19.80;99.90;;;;;;5122495;27;20031;-68
2023/09/12 01:32:35;;;;;;;1.23;0.75;;;19.80;99.90;;;;;;5119473;27;20058;-68
2023/09/12 01:35:03;;;;;;;0.63;0.45;;;19.80;99.90;;;;;;5105505;27;20039;-69
2023/09/12 01:37:32;;;;;;;0.10;0.10;;;19.70;99.90;;;;;;5123433;27;20073;-68
2023/09/12 01:39:58;;;;;;;0.45;0.45;;;19.70;99.90;;;;;;5129079;27;20039;-68
2023/09/12 01:42:27;;;;;;;1.10;0.50;;;19.70;99.90;;;;;;5121270;27;20104;-69
2023/09/12 01:44:56;;;;;;;0.80;0.65;;;19.60;99.90;;;;;;5103883;28;20236;-68
2023/09/12 01:47:23;;;;;;;1.08;0.88;;;19.60;99.90;;;;;;5119738;27;20044;-68
2023/09/12 01:49:52;;;;;;;0.30;0.30;;;19.60;99.90;;;;;;5124093;27;20035;-68
2023/09/12 01:52:19;;;;;;;0.57;0.45;;;19.50;99.90;;;;;;5124005;27;20039;-68
2023/09/12 01:54:45;;;;;;;1.58;0.65;;;19.50;99.90;;;;;;5121404;27;20474;-68
2023/09/12 01:57:12;;;;;;;0.30;0.30;;;19.60;99.90;;;;;;5119798;27;20059;-68
2023/09/12 01:59:38;;;;;;;2.28;1.67;;;19.50;99.90;;;;;;5123770;27;20517;-69
2023/09/12 02:02:03;;;;;;;0.63;0.63;;;19.50;99.90;;;;;;5120258;27;20087;-68
2023/09/12 02:04:29;;;;;;;2.78;1.45;;;19.40;99.90;;;;;;5126706;27;20035;-68
2023/09/12 02:06:55;;;;;;;0.70;0.70;;;19.40;99.90;;;;;;5123286;27;20047;-68
2023/09/12 02:09:20;;;;;;;2.28;1.48;;;19.40;99.90;;;;;;5123474;27;20039;-68
2023/09/12 02:11:48;;;;;;;0.75;0.75;;;19.40;99.90;;;;;;5119968;27;20468;-68
2023/09/12 02:14:14;;;;;;;1.00;1.00;;;19.30;99.90;;;;;;5119148;28;20054;-68
2023/09/12 02:16:39;;;;;;;0.57;0.57;;;19.30;99.90;;;;;;5117862;28;20044;-68
2023/09/12 02:19:06;;;;;;;0.30;0.30;;;19.20;99.90;;;;;;5103702;28;20589;-68
2023/09/12 02:21:31;;;;;;;1.23;0.32;;;19.20;99.90;;;;;;5121599;28;20086;-68
2023/09/12 02:23:57;;;;;;;1.48;1.17;;;19.30;99.90;;;;;;5118155;28;20063;-68
2023/09/12 02:26:23;;;;;;;0.95;0.77;;;19.30;99.90;;;;;;5119587;28;20055;-68
2023/09/12 02:28:48;;;;;;;0.55;0.52;;;19.30;99.90;;;;;;5124390;28;20073;-68
2023/09/12 02:31:14;;;;;;;3.15;1.13;;;19.30;99.90;;;;;;5130881;28;20102;-68
2023/09/12 02:33:39;;;;;;;0.22;0.22;;;19.30;99.90;;;;;;5120422;28;20059;-68
2023/09/12 02:36:05;;;;;;;0.63;0.63;;;19.20;99.90;;;;;;5118770;28;20050;-68
2023/09/12 02:38:32;;;;;;;0.95;0.80;;;19.10;99.90;;;;;;5115785;28;20501;-68
2023/09/12 02:40:58;;;;;;;0.70;0.70;;;19.10;99.90;;;;;;5105359;28;20047;-68
2023/09/12 02:43:23;;;;;;;0.25;0.25;;;19.10;99.90;;;;;;5121994;28;20058;-68
2023/09/12 02:45:49;;;;;;;1.58;0.95;;;19.10;99.90;;;;;;5113500;28;20058;-68
2023/09/12 02:48:15;;;;;;;0.20;0.20;;;19.00;99.90;;;;;;5120464;28;20498;-68
2023/09/12 02:50:40;;;;;;;0.98;0.90;;;19.00;99.90;;;;;;5115019;28;20069;-68
2023/09/12 02:53:06;;;;;;;1.10;0.75;;;19.00;99.90;;;;;;5118977;28;20051;-68
2023/09/12 02:55:32;;;;;;;0.10;0.10;;;19.00;99.90;;;;;;5116247;28;20040;-68
2023/09/12 02:57:58;;;;;;;0.82;0.82;;;19.00;99.90;;;;;;5121179;28;20043;-68
2023/09/12 03:00:23;;;;;;;0.47;0.47;;;19.00;99.90;;;;;;5121079;28;20054;-68
2023/09/12 03:02:49;;;;;;;2.05;1.65;;;19.00;99.90;;;;;;5128026;28;20064;-68
2023/09/12 03:05:15;;;;;;;3.05;0.80;;;19.00;99.90;;;;;;5105824;28;20039;-68
2023/09/12 03:07:40;;;;;;;0.15;0.15;;;19.00;99.90;;;;;;5117699;28;20054;-68
2023/09/12 03:10:06;;;;;;;1.75;0.68;;;19.10;99.90;;;;;;5128625;28;20036;-68
2023/09/12 03:12:32;;;;;;;0.30;0.30;;;19.10;99.90;;;;;;5119579;28;20086;-68
2023/09/12 03:14:58;;;;;;;1.33;1.23;;;19.10;99.90;;;;;;5125685;28;20070;-68
2023/09/12 03:17:23;;;;;;;0.55;0.55;;;19.10;99.90;;;;;;5115691;28;20418;-68
2023/09/12 03:19:49;;;;;;;0.52;0.52;;;19.00;99.90;;;;;;5119935;28;20036;-68
2023/09/12 03:22:15;;;;;;;0.60;0.60;;;19.00;99.90;;;;;;5122805;27;20058;-68
2023/09/12 03:24:40;;;;;;;0.13;0.13;;;19.00;99.90;;;;;;5127504;27;20114;-68
2023/09/12 03:27:07;;;;;;;0.55;0.52;;;19.00;99.90;;;;;;5114126;27;20111;-68
2023/09/12 03:29:33;;;;;;;1.70;1.23;;;18.90;99.90;;;;;;5123522;27;20070;-68
2023/09/12 03:31:58;;;;;;;0.03;0.03;;;18.80;99.90;;;;;;5114276;27;20436;-68
2023/09/12 03:34:24;;;;;;;1.00;0.73;;;18.70;99.90;;;;;;5124401;27;20533;-68
2023/09/12 03:36:49;;;;;;;1.30;1.20;;;18.80;99.90;;;;;;5122531;27;20058;-68
2023/09/12 03:39:15;;;;;;;0.50;0.38;;;18.70;99.90;;;;;;5119376;27;20039;-68
2023/09/12 03:41:41;;;;;;;0.80;0.80;;;18.80;99.90;;;;;;5126551;27;20079;-68
2023/09/12 03:44:07;;;;;;;0.43;0.43;;;18.70;99.90;;;;;;5100970;28;20067;-68
2023/09/12 03:46:32;;;;;;;0.80;0.80;;;18.80;99.90;;;;;;5124312;27;20031;-68
2023/09/12 03:48:58;;;;;;;0.77;0.73;;;18.70;99.90;;;;;;5105341;27;20058;-68
2023/09/12 03:51:23;;;;;;;1.10;0.95;;;18.70;99.90;;;;;;5125942;27;20047;-68
2023/09/12 03:53:49;;;;;;;0.17;0.17;;;18.70;99.90;;;;;;5123363;27;20051;-68
2023/09/12 03:56:16;;;;;;;1.17;0.68;;;18.70;99.90;;;;;;5131597;27;20042;-68
2023/09/12 03:58:41;;;;;;;0.40;0.30;;;18.70;99.90;;;;;;5125338;27;20043;-68
2023/09/12 04:01:07;;;;;;;0.80;0.80;;;18.70;99.90;;;;;;5122728;27;20320;-68
2023/09/12 04:03:33;;;;;;;5.72;1.73;;;18.70;99.90;;;;;;5120570;27;20062;-68
2023/09/12 04:05:58;;;;;;;0.95;0.52;;;18.60;99.90;;;;;;5129552;27;20038;-68
2023/09/12 04:08:24;;;;;;;2.42;1.83;;;18.60;99.90;;;;;;5119629;27;20101;-68
2023/09/12 04:10:49;;;;;;;0.73;0.73;;;18.60;99.90;;;;;;5124167;27;20050;-68
2023/09/12 04:13:15;;;;;;;3.97;0.90;;;18.70;99.90;;;;;;5126389;27;20037;-68
2023/09/12 04:15:41;;;;;;;0.70;0.68;;;18.60;99.90;;;;;;5127168;27;20394;-68
2023/09/12 04:18:06;;;;;;;0.55;0.55;;;18.50;99.90;;;;;;5106124;27;20181;-68
2023/09/12 04:20:32;;;;;;;0.68;0.68;;;18.50;99.90;;;;;;5125945;27;20042;-68
2023/09/12 04:23:00;;;;;;;1.23;1.02;;;18.50;99.90;;;;;;5125249;27;20042;-68
2023/09/12 04:25:26;;;;;;;1.77;0.75;;;18.60;99.90;;;;;;5122412;27;20774;-68
2023/09/12 04:27:52;;;;;;;0.20;0.20;;;18.60;99.90;;;;;;5121784;27;20039;-68
2023/09/12 04:30:17;;;;;;;0.65;0.65;;;18.60;99.90;;;;;;5124169;27;20050;-68
2023/09/12 04:32:43;;;;;;;0.45;0.45;;;18.60;99.90;;;;;;5104861;27;20043;-68
2023/09/12 04:35:09;;;;;;;0.68;0.68;;;18.60;99.90;;;;;;5119038;27;20106;-68
2023/09/12 04:37:35;;;;;;;0.85;0.80;;;18.60;99.90;;;;;;5125682;27;20084;-68
2023/09/12 04:40:00;;;;;;;0.55;0.55;;;18.50;99.90;;;;;;5107189;27;20072;-68
2023/09/12 04:42:26;;;;;;;0.30;0.30;;;18.50;99.90;;;;;;5118182;27;20055;-68
2023/09/12 04:44:52;;;;;;;6.43;1.10;;;18.50;99.90;;;;;;5124952;27;20027;-68
2023/09/12 04:47:18;;;;;;;0.93;0.73;;;18.40;99.90;;;;;;5123015;27;20127;-68
2023/09/12 04:49:44;;;;;;;0.20;0.20;;;18.50;99.90;;;;;;5124255;27;20483;-68
2023/09/12 04:52:09;;;;;;;0.40;0.40;;;18.50;99.90;;;;;;5120958;27;20085;-68
2023/09/12 04:54:36;;;;;;;0.73;0.73;;;18.60;99.90;;;;;;5129887;27;20039;-68
2023/09/12 04:57:02;;;;;;;0.93;0.68;;;18.60;99.90;;;;;;5124685;27;20050;-68
2023/09/12 04:59:27;;;;;;;2.80;1.85;;;18.60;99.90;;;;;;5122620;27;20733;-68
2023/09/12 05:01:53;;;;;;;0.80;0.75;;;18.60;99.90;;;;;;5121336;27;20127;-68
2023/09/12 05:04:19;;;;;;;0.90;0.85;;;18.60;99.90;;;;;;5124220;27;20047;-68
2023/09/12 05:06:45;;;;;;;0.47;0.47;;;18.70;99.90;;;;;;5123860;27;20046;-68
2023/09/12 05:09:11;;;;;;;2.30;1.63;;;18.70;99.90;;;;;;5119336;27;20489;-68
2023/09/12 05:11:36;;;;;;;1.35;1.13;;;18.70;99.90;;;;;;5124878;27;20054;-68
2023/09/12 05:14:05;;;;;;;0.70;0.70;;;18.70;99.90;;;;;;5131521;27;20104;-68
2023/09/12 05:16:31;;;;;;;1.80;1.23;;;18.60;99.90;;;;;;5124137;27;20043;-68
2023/09/12 05:18:56;;;;;;;0.30;0.30;;;18.60;99.90;;;;;;5123549;27;20059;-68
2023/09/12 05:21:22;;;;;;;0.85;0.52;;;18.70;99.90;;;;;;5121922;27;20378;-68
2023/09/12 05:23:48;;;;;;;0.60;0.57;;;18.70;99.90;;;;;;5118405;27;20085;-68
2023/09/12 05:26:13;;;;;;;0.17;0.17;;;18.60;99.90;;;;;;5122159;27;20044;-67
2023/09/12 05:28:39;;;;;;;1.15;1.00;;;18.60;99.90;;;;;;5121875;27;20120;-67
2023/09/12 05:31:05;;;;;;;0.50;0.50;;;18.70;99.90;;;;;;5119621;27;20046;-67
2023/09/12 05:33:30;;;;;;;0.80;0.70;;;18.60;99.90;;;;;;5122090;27;20502;-68
2023/09/12 05:35:56;;;;;;;0.45;0.45;;;18.60;99.90;;;;;;5103540;28;20372;-68
2023/09/12 05:38:22;;;;;;;0.10;0.10;;;18.60;99.90;;;;;;5103195;28;20130;-67
2023/09/12 05:40:49;;;;;;;0.98;0.90;;;18.70;99.90;;;;;;5123313;27;20039;-67
2023/09/12 05:43:18;;;;;;;0.63;0.43;;;18.70;99.90;;;;;;5122998;27;20060;-68
2023/09/12 05:45:44;;;;;;;1.02;1.00;;;18.60;99.90;;;;;;5120150;27;20074;-68
2023/09/12 05:48:09;;;;;;;0.38;0.38;;;18.60;99.90;;;;;;5125269;27;20077;-67
2023/09/12 05:50:36;;;;;;;0.73;0.65;;;18.60;99.90;;;;;;5116565;27;20075;-67
2023/09/12 05:53:03;;;;;;;2.03;1.30;;;18.70;99.90;;;;;;5105581;27;20071;-68
2023/09/12 05:55:28;;;;;;;1.55;1.00;;;18.70;99.90;;;;;;5119032;27;20449;-67
2023/09/12 05:57:54;;;;;;;0.03;0.03;;;18.70;99.90;;;;;;5123918;27;20050;-67
2023/09/12 06:00:20;;;;;;;1.23;1.10;;;18.70;99.90;;;;;;5121113;27;20047;-68
2023/09/12 06:02:47;;;;;;;0.10;0.10;;;18.70;99.90;;;;;;5130318;27;20454;-68
2023/09/12 06:05:12;;;;;;;0.40;0.40;;;18.70;99.90;;;;;;5121244;27;20039;-68
2023/09/12 06:07:40;;;;;;;0.17;0.17;;;18.70;99.90;;;;;;5120303;27;20548;-67
2023/09/12 06:10:06;;;;;;;0.28;0.28;;;18.70;99.90;;;;;;5115189;27;20502;-68
2023/09/12 06:12:32;;;;;;;1.42;1.33;;;18.70;99.90;;;;;;5102498;28;20036;-67
2023/09/12 06:14:59;;;;;;;0.50;0.50;;;18.70;99.90;;;;;;5121496;27;20482;-67
2023/09/12 06:17:24;;;;;;;0.63;0.52;;;18.80;99.90;;;;;;5124012;28;20159;-67
2023/09/12 06:19:51;;;;;;;0.88;0.68;;;18.80;99.90;;;;;;5123854;28;20121;-68
2023/09/12 06:22:17;;;;;;;0.52;0.52;;;18.80;99.90;;;;;;5117316;28;20059;-68
2023/09/12 06:24:45;;;;;;;1.70;0.68;;;18.80;99.90;;;;;;5119699;28;20042;-68
2023/09/12 06:27:18;;;;;;;0.85;0.57;;;18.90;99.90;;;;;;5123449;28;20390;-68
2023/09/12 06:29:48;;;;;;;;;;;18.90;99.90;;;;;;5126637;28;20044;-68
2023/09/12 06:32:15;;;;;;;1.10;0.65;;;19.00;99.90;;;;;;5128272;28;20025;-68
2023/09/12 06:34:41;;;;;;;2.20;1.08;;;19.10;99.90;;;;;;5118009;28;20036;-68
2023/09/12 06:37:07;;;;;;;0.30;0.30;;;19.10;99.90;;;;;;5124868;28;20091;-68
2023/09/12 06:39:32;;;;;;;1.88;1.02;;;19.20;99.90;;;;;;5121631;28;20130;-68
2023/09/12 06:41:58;;;;;;;0.73;0.73;;;19.30;99.90;;;;;;5125709;28;20044;-68
2023/09/12 06:44:24;;;;;;;0.32;0.32;;;19.30;99.90;;;;;;5121541;28;20043;-68
2023/09/12 06:46:49;;;;;;;0.43;0.43;;;19.30;99.90;;;;;;5122381;28;20047;-68
2023/09/12 06:49:15;;;;;;;0.13;0.10;;;19.40;99.90;;;;;;5117436;28;20082;-68
2023/09/12 06:51:40;;;;;;;1.65;1.33;;;19.40;99.90;;;;;;5122159;28;20040;-68
2023/09/12 06:54:06;;;;;;;0.70;0.50;;;19.40;99.90;;;;;;5124353;28;20039;-68
2023/09/12 06:56:32;;;;;;;1.15;0.70;;;19.40;99.90;;;;;;5117218;28;20089;-68
2023/09/12 06:58:59;;;;;;;0.40;0.38;;;19.50;99.90;;;;;;5105777;27;20040;-68
2023/09/12 07:01:25;;;;;;;0.22;0.20;;;19.50;99.90;;;;;;5124505;27;20043;-68
2023/09/12 07:03:53;;;;;;;0.45;0.40;;;19.40;99.90;;;;;;5125990;27;20119;-68
2023/09/12 07:06:19;;;;;;;0.77;0.77;;;19.60;99.90;;;;;;5123148;27;20046;-68
2023/09/12 07:08:45;;;;;;;3.13;0.38;;;19.60;99.90;;;;;;5124628;27;20056;-68
2023/09/12 07:11:10;;;;;;;0.45;0.45;;;19.60;99.90;;;;;;5125961;27;20031;-68
2023/09/12 07:13:36;;;;;;;0.63;0.63;;;19.70;99.90;;;;;;5136147;27;20043;-68
2023/09/12 07:16:05;;;;;;;0.32;0.32;;;19.70;99.90;;;;;;5129480;27;20050;-68
2023/09/12 07:18:34;;;;;;;1.45;0.85;;;19.80;99.90;;;;;;5120905;27;20046;-68
2023/09/12 07:21:01;;;;;;;0.43;0.28;;;19.90;99.90;;;;;;5127061;27;20046;-68
2023/09/12 07:23:28;;;;;;;0.50;0.50;;;19.90;99.90;;;;;;5126107;27;20039;-68
2023/09/12 07:25:55;;;;;;;0.98;0.70;;;19.90;99.90;;;;;;5132290;27;20031;-68
2023/09/12 07:28:21;;;;;;;6.35;1.92;;;20.00;99.90;;;;;;5124001;27;20047;-68
2023/09/12 07:30:47;;;;;;;1.95;1.00;;;20.00;99.90;;;;;;5117592;27;20043;-68
2023/09/12 07:33:12;;;;;;;9.05;1.92;;;20.10;99.90;;;;;;5124419;27;20423;-68
2023/09/12 07:35:38;;;;;;;1.45;0.52;;;20.20;99.90;;;;;;5126846;27;20051;-68
2023/09/12 07:38:04;;;;;;;0.70;0.43;;;20.20;99.90;;;;;;5126150;27;20046;-68
2023/09/12 07:40:29;;;;;;;0.50;0.50;;;20.30;99.90;;;;;;5125961;27;20074;-68
2023/09/12 07:42:55;;;;;;;0.52;0.50;;;20.30;99.90;;;;;;5127267;27;20043;-68
2023/09/12 07:45:21;;;;;;;0.10;0.10;;;20.40;99.90;;;;;;5120595;27;20038;-68
2023/09/12 07:47:47;;;;;;;0.43;0.30;;;20.40;99.90;;;;;;5121404;27;20043;-68
2023/09/12 07:50:12;;;;;;;1.10;0.63;;;20.50;99.90;;;;;;5127052;27;20095;-68
2023/09/12 07:52:38;;;;;;;1.38;0.85;;;20.50;99.90;;;;;;5122128;27;20596;-68
2023/09/12 07:55:04;;;;;;;0.68;0.68;;;20.50;99.90;;;;;;5125557;27;20043;-68
2023/09/12 07:57:30;;;;;;;0.30;0.30;;;20.60;99.90;;;;;;5126981;27;20054;-68
2023/09/12 07:59:56;;;;;;;0.17;0.17;;;20.60;99.90;;;;;;5122261;27;20403;-68
2023/09/12 08:02:23;;;;;;;0.20;0.20;;;20.70;99.90;;;;;;5128395;27;20054;-68
2023/09/12 08:04:50;;;;;;;8.85;1.33;;;20.70;99.90;;;;;;5130911;27;20604;-68
2023/09/12 08:07:16;;;;;;;0.93;0.82;;;20.70;99.90;;;;;;5127157;27;20059;-68
2023/09/12 08:09:57;;;;;;;0.20;0.10;;;20.80;99.90;;;;;;5121973;27;20119;-68
2023/09/12 08:12:27;;;;;;;1.27;1.17;;;20.90;99.90;;;;;;5129794;27;20134;-68
2023/09/12 08:14:56;;;;;;;0.22;0.22;;;20.80;99.90;;;;;;5127874;27;20478;-68
2023/09/12 08:17:23;;;;;;;0.98;0.85;;;20.90;99.90;;;;;;5102633;27;20035;-68
2023/09/12 08:19:48;;;;;;;0.47;0.47;;;20.90;99.90;;;;;;5128011;27;20095;-68
2023/09/12 08:22:15;;;;;;;1.85;1.75;;;21.00;99.90;;;;;;5131319;27;20043;-68
2023/09/12 08:24:40;;;;;;;0.35;0.35;;;20.90;99.90;;;;;;5121546;27;20414;-68
2023/09/12 08:27:06;;;;;;;1.00;0.35;;;20.90;99.90;;;;;;5124478;27;20047;-68
2023/09/12 08:29:33;;;;;;;3.75;1.85;;;20.90;99.90;;;;;;5126526;27;20500;-68
2023/09/12 08:31:59;;;;;;;2.28;0.45;;;21.00;99.90;;;;;;5124483;27;20052;-68
2023/09/12 08:34:25;;;;;;;0.38;0.30;;;21.10;99.90;;;;;;5122013;27;20070;-68
2023/09/12 08:36:51;;;;;;;5.13;2.22;;;21.20;99.90;;;;;;5127844;27;20043;-68
2023/09/12 08:39:23;;;;;;;0.15;0.15;;;21.30;99.90;;;;;;5104108;27;20043;-68
2023/09/12 08:41:49;;;;;;;0.43;0.43;;;21.40;99.90;;;;;;5130711;27;20589;-68
2023/09/12 08:44:15;;;;;;;1.48;0.95;;;21.40;99.90;;;;;;5125567;27;20133;-69
2023/09/12 08:46:45;;;;;;;0.88;0.88;;;21.50;99.90;;;;;;5122395;27;20135;-68
2023/09/12 08:49:11;;;;;;;0.47;0.47;;;21.50;99.90;;;;;;5114502;27;20050;-68
2023/09/12 08:51:39;;;;;;;0.50;0.50;;;21.60;99.90;;;;;;5123819;27;20043;-68
2023/09/12 08:54:05;;;;;;;0.28;0.28;;;21.50;99.90;;;;;;5103951;28;20047;-68
2023/09/12 08:56:32;;;;;;;0.00;0.00;;;21.50;99.90;;;;;;5128455;27;20091;-68
2023/09/12 08:59:00;;;;;;;0.88;0.75;;;21.50;99.90;;;;;;5121844;27;20035;-68
2023/09/12 09:01:28;;;;;;;0.45;0.45;;;21.50;99.90;;;;;;5120781;27;20054;-68
2023/09/12 09:03:54;;;;;;;2.08;0.90;;;21.50;99.90;;;;;;5124944;27;20044;-68
2023/09/12 09:06:22;;;;;;;0.45;0.45;;;21.50;99.90;;;;;;5124354;27;20050;-68
2023/09/12 09:08:49;;;;;;;1.02;0.60;;;21.50;99.90;;;;;;5124260;27;20054;-68
2023/09/12 09:11:15;;;;;;;1.98;0.75;;;21.50;99.90;;;;;;5121342;27;20044;-68
2023/09/12 09:13:40;;;;;;;0.30;0.30;;;21.50;99.90;;;;;;5120452;27;20069;-68
2023/09/12 09:16:13;;;;;;;0.20;0.20;;;21.60;99.90;;;;;;5125831;27;20039;-68
2023/09/12 09:18:51;;;;;;;3.05;1.10;;;21.70;99.90;;;;;;5122242;27;20047;-68
2023/09/12 09:21:24;;;;;;;0.10;0.10;;;21.70;99.90;;;;;;5120963;27;20043;-68
2023/09/12 09:23:50;;;;;;;0.20;0.20;;;22.30;99.90;;;;;;5122661;27;20116;-68
2023/09/12 09:26:15;;;;;;;0.00;0.00;;;23.20;99.90;;;;;;5105064;27;20293;-68
2023/09/12 09:28:41;;;;;;;0.45;0.43;;;23.90;99.90;;;;;;5124553;27;20093;-68
2023/09/12 09:31:13;;;;;;;0.80;0.80;;;24.70;99.90;;;;;;5118119;27;20031;-68
2023/09/12 09:33:51;;;;;;;0.25;0.25;;;24.70;99.90;;;;;;5118681;27;20069;-68
2023/09/12 09:36:16;;;;;;;0.50;0.50;;;24.40;99.90;;;;;;5123274;27;20053;-68
2023/09/12 09:38:43;;;;;;;0.55;0.55;;;24.10;99.90;;;;;;5120827;27;20470;-68
2023/09/12 09:41:09;;;;;;;1.17;1.13;;;23.80;99.90;;;;;;5118986;27;20044;-68
2023/09/12 09:43:34;;;;;;;0.50;0.50;;;23.50;99.90;;;;;;5129637;27;20727;-68
2023/09/12 09:46:00;;;;;;;0.73;0.73;;;23.40;99.90;;;;;;5117443;27;20039;-68
2023/09/12 09:48:31;;;;;;;0.00;0.00;;;23.30;99.90;;;;;;5127276;27;20042;-68
2023/09/12 09:51:02;;;;;;;4.40;1.48;;;23.30;99.90;;;;;;5108913;28;20040;-68
2023/09/12 09:53:28;;;;;;;1.13;0.52;;;23.40;99.90;;;;;;5124829;27;20394;-68
2023/09/12 09:56:13;;;;;;;0.52;0.52;;;23.50;99.90;;;;;;5120192;27;20096;-68
2023/09/12 09:58:52;;;;;;;0.40;0.40;;;23.70;99.90;;;;;;5120812;27;20058;-68
2023/09/12 10:01:20;;;;;;;0.55;0.55;;;23.70;99.90;;;;;;5124338;27;20118;-68
2023/09/12 10:03:47;;;;;;;0.30;0.30;;;23.50;99.90;;;;;;5122569;27;20047;-69
2023/09/12 10:06:18;;;;;;;1.15;0.98;;;23.50;99.90;;;;;;5117593;27;20039;-68
2023/09/12 10:08:46;;;;;;;1.23;1.13;;;23.40;99.90;;;;;;5102626;28;20474;-68
2023/09/12 10:11:16;;;;;;;0.45;0.45;;;23.20;99.90;;;;;;5098830;27;20043;-68
2023/09/12 10:13:52;;;;;;;0.40;0.40;;;23.00;99.90;;;;;;5123394;27;20050;-68
2023/09/12 10:16:20;;;;;;;0.35;0.35;;;22.90;99.90;;;;;;5121436;27;20035;-68
2023/09/12 10:19:16;;;;;;;0.20;0.20;;;22.80;99.90;;;;;;5120472;28;20118;-68
2023/09/12 10:22:22;;;;;;;0.15;0.15;;;22.70;99.90;;;;;;5112587;28;20104;-68
2023/09/12 10:24:50;;;;;;;0.40;0.28;;;22.60;99.90;;;;;;5095002;28;20047;-68
2023/09/12 10:27:18;;;;;;;0.10;0.10;;;22.60;99.90;;;;;;5116716;28;20048;-68
2023/09/12 10:29:47;;;;;;;1.05;0.50;;;22.60;99.90;;;;;;5119349;28;20083;-68
2023/09/12 10:32:15;;;;;;;1.75;1.65;;;22.60;99.90;;;;;;5127682;27;20039;-68
2023/09/12 10:34:44;;;;;;;0.40;0.40;;;22.60;99.90;;;;;;5124270;27;20472;-68
2023/09/12 10:37:15;;;;;;;0.52;0.52;;;22.70;99.90;;;;;;5107667;27;20043;-68
2023/09/12 10:39:46;;;;;;;0.00;0.00;;;22.70;99.90;;;;;;5126142;27;20408;-68
2023/09/12 10:42:13;;;;;;;0.10;0.10;;;22.70;99.90;;;;;;5127311;27;20039;-68
2023/09/12 10:44:38;;;;;;;1.38;0.73;;;22.70;99.90;;;;;;5124462;27;20700;-69
2023/09/12 10:47:05;;;;;;;0.17;0.10;;;22.80;99.90;;;;;;5124073;27;20131;-68
2023/09/12 10:49:31;;;;;;;1.65;0.30;;;22.90;99.90;;;;;;5107567;27;20078;-68
2023/09/12 10:51:57;;;;;;;0.75;0.68;;;23.00;99.90;;;;;;5102213;27;20088;-68
2023/09/12 10:54:37;;;;;;;0.88;0.20;;;23.20;99.90;;;;;;5126019;27;20043;-68
2023/09/12 10:57:13;;;;;;;0.52;0.35;;;23.10;99.90;;;;;;5124629;27;20039;-68
2023/09/12 10:59:58;;;;;;;0.10;0.10;;;23.00;99.90;;;;;;5123028;27;20071;-68
2023/09/12 11:02:34;;;;;;;0.10;0.10;;;22.80;99.90;;;;;;5127439;27;20044;-69
2023/09/12 11:05:24;;;;;;;0.10;0.10;;;22.80;99.90;;;;;;5124084;27;20490;-68
2023/09/12 11:07:49;;;;;;;0.10;0.10;;;22.70;99.90;;;;;;5124286;27;20418;-68
2023/09/12 11:10:16;;;;;;;0.30;0.30;;;22.60;99.90;;;;;;5125259;27;20031;-69
2023/09/12 11:12:43;;;;;;;0.47;0.47;;;22.60;99.90;;;;;;5125641;27;20043;-69
2023/09/12 11:15:13;;;;;;;0.70;0.70;;;22.60;99.90;;;;;;5120770;27;20507;-69
2023/09/12 11:17:40;;;;;;;0.03;0.00;;;22.60;99.90;;;;;;5123553;27;20538;-69
2023/09/12 11:20:13;;;;;;;0.10;0.10;;;22.70;99.90;;;;;;5107319;27;20067;-68
2023/09/12 11:22:47;;;;;;;0.00;0.00;;;22.60;99.90;;;;;;5119567;27;20084;-68
2023/09/12 11:25:25;;;;;;;0.10;0.10;;;22.50;99.90;;;;;;5124153;27;20043;-68
2023/09/12 11:27:51;;;;;;;0.98;0.25;;;22.50;99.90;;;;;;5120198;27;20040;-69
2023/09/12 11:30:24;;;;;;;0.00;0.00;;;22.50;99.90;;;;;;5119876;27;20522;-69
2023/09/12 11:32:51;;;;;;;0.00;0.00;;;22.50;99.90;;;;;;5118800;27;20059;-69
2023/09/12 11:35:23;;;;;;;0.43;0.43;;;22.50;99.90;;;;;;5116554;27;20510;-69
2023/09/12 11:37:50;;;;;;;0.65;0.55;;;22.50;99.90;;;;;;5126010;27;20046;-69
2023/09/12 11:40:33;;;;;;;0.05;0.00;;;22.60;99.90;;;;;;5107853;27;20136;-69
2023/09/12 11:42:59;;;;;;;0.25;0.15;;;23.00;99.90;;;;;;5113436;27;20134;-69
2023/09/12 11:45:25;;;;;;;0.22;0.22;;;23.00;99.90;;;;;;5121108;27;20137;-69
2023/09/12 11:47:51;;;;;;;0.38;0.38;;;23.10;99.90;;;;;;5126189;27;20129;-69
2023/09/12 11:50:26;;;;;;;0.00;0.00;;;23.20;99.90;;;;;;5099640;28;20048;-69
2023/09/12 11:53:08;;;;;;;0.10;0.10;;;23.10;99.90;;;;;;5104087;28;20105;-69
2023/09/12 11:55:42;;;;;;;0.20;0.20;;;23.00;99.90;;;;;;5123994;27;20055;-69
2023/09/12 11:58:07;;;;;;;0.20;0.20;;;23.00;99.90;;;;;;5125455;27;20043;-69
2023/09/12 12:00:33;;;;;;;0.03;0.03;;;22.90;99.90;;;;;;5124001;27;20049;-69
2023/09/12 12:02:59;;;;;;;0.00;0.00;;;23.00;99.90;;;;;;5126500;27;20034;-69
2023/09/12 12:05:25;;;;;;;0.13;0.13;;;23.00;99.90;;;;;;5123677;27;20043;-69
2023/09/12 12:07:50;;;;;;;0.03;0.03;;;23.00;99.90;;;;;;5119055;27;20047;-69
2023/09/12 12:10:17;;;;;;;0.00;0.00;;;23.00;99.90;;;;;;5121936;27;20043;-69
2023/09/12 12:12:46;;;;;;;0.57;0.15;;;23.00;99.90;;;;;;5124683;27;20051;-69
2023/09/12 12:15:12;;;;;;;1.65;0.77;;;23.00;99.90;;;;;;5102998;27;20046;-69
2023/09/12 12:17:40;;;;;;;0.10;0.10;;;22.90;99.90;;;;;;5122720;27;20051;-69
2023/09/12 12:20:10;;;;;;;0.25;0.25;;;22.90;99.90;;;;;;5112278;27;20039;-69
2023/09/12 12:22:40;;;;;;;0.00;0.00;;;22.90;99.90;;;;;;5122534;27;20487;-69
2023/09/12 12:25:10;;;;;;;0.50;0.50;;;22.80;99.90;;;;;;5124385;27;20503;-69
2023/09/12 12:27:38;;;;;;;0.08;0.08;;;22.90;99.90;;;;;;5117028;27;20412;-69
2023/09/12 12:30:11;;;;;;;0.38;0.15;;;22.90;99.90;;;;;;5124488;27;20502;-69
2023/09/12 12:32:46;;;;;;;0.00;0.00;;;22.90;99.90;;;;;;5125387;27;20047;-69
2023/09/12 12:35:22;;;;;;;0.30;0.22;;;23.00;99.90;;;;;;5125000;27;20044;-69
2023/09/12 12:37:49;;;;;;;0.00;0.00;;;23.10;99.90;;;;;;5123778;27;20106;-69
2023/09/12 12:40:15;;;;;;;0.00;0.00;;;23.60;99.90;;;;;;5119113;27;20493;-69
2023/09/12 12:42:42;;;;;;;0.10;0.05;;;23.70;99.90;;;;;;5131803;27;20497;-69
2023/09/12 12:45:23;;;;;;;0.00;0.00;;;23.70;99.90;;;;;;5124440;27;20119;-69
2023/09/12 12:48:00;;;;;;;0.00;0.00;;;23.60;99.90;;;;;;5121599;27;20526;-69
2023/09/12 12:50:26;;;;;;;0.30;0.30;;;23.40;99.90;;;;;;5103470;28;20058;-69